createdAt,value
2023-03-29T00:00:08.097Z,99975.44
2023-03-29T00:02:35.630Z,99976.06
2023-03-29T00:05:04.905Z,99967.06
2023-03-29T00:07:33.814Z,99962.81
2023-03-29T00:10:01.484Z,99961.00
2023-03-29T00:12:29.281Z,99957.81
2023-03-29T00:14:57.065Z,99940.97
2023-03-29T00:17:24.697Z,99938.84
2023-03-29T00:19:52.219Z,99935.16
2023-03-29T00:22:21.383Z,99931.03
2023-03-29T00:24:49.151Z,99924.69
2023-03-29T00:27:17.320Z,99934.78
2023-03-29T00:29:44.771Z,99929.47
2023-03-29T00:32:13.031Z,99928.00
2023-03-29T00:34:42.581Z,99921.97
2023-03-29T00:37:10.524Z,99920.59
2023-03-29T00:39:41.966Z,99928.53
2023-03-29T00:42:12.676Z,99932.59
2023-03-29T00:45:01.768Z,99929.47
2023-03-29T00:47:32.236Z,99933.44
2023-03-29T00:50:04.057Z,99928.88
2023-03-29T00:52:33.087Z,99917.47
2023-03-29T00:55:07.636Z,99915.50
2023-03-29T00:57:35.690Z,99908.38
2023-03-29T01:00:05.772Z,99900.66
2023-03-29T01:02:35.331Z,99888.44
2023-03-29T01:05:07.066Z,99892.41
2023-03-29T01:07:39.498Z,99890.84
2023-03-29T01:10:12.683Z,99891.03
2023-03-29T01:12:45.393Z,99883.53
2023-03-29T01:15:15.251Z,99889.88
2023-03-29T01:17:50.003Z,99882.13
2023-03-29T01:20:22.888Z,99882.50
2023-03-29T01:23:05.299Z,99869.31
2023-03-29T01:25:42.843Z,99866.69
2023-03-29T01:28:15.650Z,99864.75
2023-03-29T01:30:49.403Z,99864.84
2023-03-29T01:33:23.314Z,99862.00
2023-03-29T01:35:57.523Z,99853.03
2023-03-29T01:38:28.986Z,99851.50
2023-03-29T01:40:56.585Z,99843.94
2023-03-29T01:43:32.364Z,99842.34
2023-03-29T01:46:05.824Z,99844.63
2023-03-29T01:48:42.477Z,99842.75
2023-03-29T01:51:16.062Z,99826.09
2023-03-29T01:53:48.445Z,99832.09
2023-03-29T01:56:19.509Z,99838.38
2023-03-29T01:58:52.568Z,99824.84
2023-03-29T02:01:23.886Z,99806.09
2023-03-29T02:03:57.493Z,99815.50
2023-03-29T02:06:27.212Z,99817.38
2023-03-29T02:08:55.603Z,99818.63
2023-03-29T02:11:25.844Z,99817.59
2023-03-29T02:13:54.697Z,99820.75
2023-03-29T02:16:22.673Z,99816.53
2023-03-29T02:18:53.154Z,99815.88
2023-03-29T02:21:26.554Z,99817.81
2023-03-29T02:23:57.203Z,99807.22
2023-03-29T02:26:24.740Z,99807.97
2023-03-29T02:28:54.069Z,99819.41
2023-03-29T02:31:26.477Z,99815.84
2023-03-29T02:34:00.313Z,99807.81
2023-03-29T02:36:32.957Z,99805.25
2023-03-29T02:39:04.464Z,99800.84
2023-03-29T02:41:33.393Z,99808.03
2023-03-29T02:44:05.008Z,99805.72
2023-03-29T02:46:32.634Z,99805.25
2023-03-29T02:49:01.024Z,99807.94
2023-03-29T02:51:32.710Z,99798.47
2023-03-29T02:54:03.943Z,99791.28
2023-03-29T02:56:31.676Z,99797.16
2023-03-29T02:58:59.088Z,99785.66
2023-03-29T03:01:28.106Z,99785.00
2023-03-29T03:03:55.669Z,99783.19
2023-03-29T03:06:23.963Z,99787.09
2023-03-29T03:08:51.454Z,99789.03
2023-03-29T03:11:19.307Z,99782.13
2023-03-29T03:13:46.754Z,99783.41
2023-03-29T03:16:14.313Z,99774.31
2023-03-29T03:18:43.896Z,99773.94
2023-03-29T03:21:11.391Z,99771.25
2023-03-29T03:23:38.830Z,99774.78
2023-03-29T03:26:06.301Z,99769.78
2023-03-29T03:28:34.160Z,99775.66
2023-03-29T03:31:01.820Z,99772.19
2023-03-29T03:33:29.524Z,99776.72
2023-03-29T03:36:02.995Z,99777.88
2023-03-29T03:38:30.949Z,99771.91
2023-03-29T03:40:58.797Z,99774.88
2023-03-29T03:43:26.910Z,99785.47
2023-03-29T03:45:54.398Z,99781.53
2023-03-29T03:48:22.933Z,99779.72
2023-03-29T03:50:51.492Z,99784.47
2023-03-29T03:53:21.130Z,99777.06
2023-03-29T03:55:49.083Z,99776.81
2023-03-29T03:58:16.626Z,99780.31
2023-03-29T04:00:44.459Z,99787.38
2023-03-29T04:03:12.443Z,99776.06
2023-03-29T04:05:40.820Z,99771.91
2023-03-29T04:08:08.922Z,99780.63
2023-03-29T04:10:37.970Z,99775.78
2023-03-29T04:13:06.107Z,99776.88
2023-03-29T04:15:35.654Z,99780.06
2023-03-29T04:18:03.171Z,99772.75
2023-03-29T04:20:30.904Z,99772.69
2023-03-29T04:22:58.377Z,99772.34
2023-03-29T04:25:25.910Z,99771.38
2023-03-29T04:27:54.719Z,99768.41
2023-03-29T04:30:22.276Z,99766.91
2023-03-29T04:32:49.820Z,99769.78
2023-03-29T04:35:17.837Z,99756.22
2023-03-29T04:37:45.352Z,99757.94
2023-03-29T04:40:14.818Z,99756.44
2023-03-29T04:42:44.246Z,99755.84
2023-03-29T04:45:14.072Z,99745.81
2023-03-29T04:47:43.439Z,99747.16
2023-03-29T04:50:11.301Z,99754.72
2023-03-29T04:52:39.202Z,99755.63
2023-03-29T04:55:07.940Z,99753.72
2023-03-29T04:57:35.459Z,99745.94
2023-03-29T05:00:07.539Z,99739.03
2023-03-29T05:02:36.678Z,99744.47
2023-03-29T05:05:04.807Z,99742.09
2023-03-29T05:07:32.224Z,99744.53
2023-03-29T05:09:59.693Z,99742.81
2023-03-29T05:12:27.123Z,99743.78
2023-03-29T05:14:54.651Z,99745.13
2023-03-29T05:17:22.454Z,99747.66
2023-03-29T05:19:51.232Z,99750.44
2023-03-29T05:22:20.095Z,99750.66
2023-03-29T05:24:47.742Z,99757.03
2023-03-29T05:27:15.205Z,99759.31
2023-03-29T05:29:43.473Z,99761.97
2023-03-29T05:32:11.242Z,99755.34
2023-03-29T05:34:39.101Z,99750.56
2023-03-29T05:37:08.150Z,99743.81
2023-03-29T05:39:37.997Z,99739.84
2023-03-29T05:42:06.220Z,99745.41
2023-03-29T05:44:34.178Z,99738.81
2023-03-29T05:47:01.857Z,99740.53
2023-03-29T05:49:29.348Z,99740.75
2023-03-29T05:51:56.995Z,99741.50
2023-03-29T05:54:26.410Z,99749.16
2023-03-29T05:56:53.940Z,99735.56
2023-03-29T05:59:23.496Z,99729.78
2023-03-29T06:01:51.864Z,99727.72
2023-03-29T06:04:19.469Z,99731.53
2023-03-29T06:06:48.487Z,99723.16
2023-03-29T06:09:15.930Z,99727.25
2023-03-29T06:11:45.018Z,99730.06
2023-03-29T06:14:13.517Z,99717.69
2023-03-29T06:16:42.807Z,99725.16
2023-03-29T06:19:10.498Z,99716.53
2023-03-29T06:21:38.013Z,99721.94
2023-03-29T06:24:06.684Z,99721.59
2023-03-29T06:26:34.192Z,99734.34
2023-03-29T06:29:04.192Z,99724.25
2023-03-29T06:31:31.883Z,99721.44
2023-03-29T06:33:59.420Z,99721.50
2023-03-29T06:36:26.873Z,99735.38
2023-03-29T06:38:55.264Z,99733.78
2023-03-29T06:41:23.772Z,99735.56
2023-03-29T06:43:51.325Z,99731.50
2023-03-29T06:46:20.252Z,99736.31
2023-03-29T06:48:48.186Z,99737.97
2023-03-29T06:51:15.843Z,99735.78
2023-03-29T06:53:43.334Z,99741.69
2023-03-29T06:56:11.119Z,99748.59
2023-03-29T06:58:39.038Z,99741.88
2023-03-29T07:01:07.429Z,99749.09
2023-03-29T07:03:36.288Z,99747.13
2023-03-29T07:06:09.823Z,99739.97
2023-03-29T07:08:43.227Z,99747.00
2023-03-29T07:11:13.155Z,99748.56
2023-03-29T07:13:42.303Z,99746.22
2023-03-29T07:16:12.479Z,99747.88
2023-03-29T07:18:42.770Z,99737.25
2023-03-29T07:21:11.576Z,99735.66
2023-03-29T07:23:39.370Z,99732.41
2023-03-29T07:26:07.998Z,99739.09
2023-03-29T07:28:37.219Z,99740.31
2023-03-29T07:31:06.662Z,99739.50
2023-03-29T07:33:34.306Z,99734.00
2023-03-29T07:36:03.385Z,99738.19
2023-03-29T07:38:31.365Z,99749.00
2023-03-29T07:40:59.048Z,99745.56
2023-03-29T07:43:26.541Z,99740.91
2023-03-29T07:45:54.150Z,99745.63
2023-03-29T07:48:22.123Z,99744.75
2023-03-29T07:50:49.619Z,99755.28
2023-03-29T07:53:18.457Z,99759.88
2023-03-29T07:55:49.021Z,99759.63
2023-03-29T07:58:17.091Z,99757.91
2023-03-29T08:00:44.606Z,99761.91
2023-03-29T08:03:13.398Z,99756.88
2023-03-29T08:05:42.062Z,99755.13
2023-03-29T08:08:10.760Z,99761.91
2023-03-29T08:10:40.039Z,99761.09
2023-03-29T08:13:10.720Z,99748.00
2023-03-29T08:15:39.836Z,99739.59
2023-03-29T08:18:07.663Z,99751.03
2023-03-29T08:20:35.370Z,99743.94
2023-03-29T08:23:02.910Z,99738.81
2023-03-29T08:25:30.812Z,99735.59
2023-03-29T08:27:59.810Z,99726.34
2023-03-29T08:30:27.351Z,99729.00
2023-03-29T08:32:55.707Z,99732.09
2023-03-29T08:35:23.372Z,99737.63
2023-03-29T08:37:51.186Z,99739.06
2023-03-29T08:40:22.580Z,99750.38
2023-03-29T08:43:04.360Z,99742.72
2023-03-29T08:45:38.691Z,99743.81
2023-03-29T08:48:18.606Z,99742.72
2023-03-29T08:50:53.756Z,99744.13
2023-03-29T08:53:24.815Z,99744.75
2023-03-29T08:55:56.511Z,99749.16
2023-03-29T08:58:28.971Z,99749.44
2023-03-29T09:00:58.800Z,99744.53
2023-03-29T09:03:30.903Z,99749.56
2023-03-29T09:06:03.104Z,99747.22
2023-03-29T09:08:31.060Z,99742.09
2023-03-29T09:11:35.113Z,99739.19
2023-03-29T09:14:18.845Z,99739.78
2023-03-29T09:16:54.052Z,99742.31
2023-03-29T09:19:26.459Z,99744.84
2023-03-29T09:22:02.838Z,99741.00
2023-03-29T09:24:40.938Z,99747.16
2023-03-29T09:27:11.718Z,99741.50
2023-03-29T09:29:50.773Z,99746.19
2023-03-29T09:32:23.219Z,99744.66
2023-03-29T09:34:59.263Z,99743.25
2023-03-29T09:37:33.155Z,99746.22
2023-03-29T09:40:03.798Z,99746.22
2023-03-29T09:42:32.666Z,99747.31
2023-03-29T09:45:08.384Z,99738.06
2023-03-29T09:47:39.807Z,99739.09
2023-03-29T09:50:23.077Z,99739.50
2023-03-29T09:52:57.482Z,99734.78
2023-03-29T09:55:28.218Z,99729.81
2023-03-29T09:57:58.963Z,99729.81
2023-03-29T10:00:28.026Z,99729.81
2023-03-29T10:02:59.910Z,99730.81
2023-03-29T10:05:30.849Z,99728.47
2023-03-29T10:08:01.088Z,99730.25
2023-03-29T10:10:31.790Z,99723.38
2023-03-29T10:13:03.978Z,99721.00
2023-03-29T10:15:33.235Z,99723.69
2023-03-29T10:18:03.285Z,99713.78
2023-03-29T10:20:31.530Z,99718.19
2023-03-29T10:23:00.169Z,99721.88
2023-03-29T10:25:31.197Z,99726.19
2023-03-29T10:28:07.404Z,99715.81
2023-03-29T10:30:38.974Z,99722.03
2023-03-29T10:33:08.926Z,99717.13
2023-03-29T10:35:41.484Z,99719.34
2023-03-29T10:38:14.931Z,99726.97
2023-03-29T10:40:44.950Z,99722.78
2023-03-29T10:43:14.433Z,99728.03
2023-03-29T10:45:44.093Z,99713.97
2023-03-29T10:48:14.900Z,99712.69
2023-03-29T10:50:43.929Z,99706.84
2023-03-29T10:53:17.548Z,99708.72
2023-03-29T10:55:55.287Z,99704.06
2023-03-29T10:58:35.548Z,99695.31
2023-03-29T11:01:04.958Z,99696.50
2023-03-29T11:03:49.643Z,99699.16
2023-03-29T11:06:25.518Z,99706.63
2023-03-29T11:08:57.726Z,99712.31
2023-03-29T11:11:43.969Z,99701.97
2023-03-29T11:14:22.989Z,99701.97
2023-03-29T11:17:00.267Z,99693.28
2023-03-29T11:19:52.732Z,99693.53
2023-03-29T11:22:27.658Z,99690.88
2023-03-29T11:25:10.960Z,99685.09
2023-03-29T11:27:47.221Z,99689.09
2023-03-29T11:30:23.762Z,99692.47
2023-03-29T11:33:01.553Z,99688.06
2023-03-29T11:35:44.540Z,99679.63
2023-03-29T11:38:22.781Z,99675.03
2023-03-29T11:40:57.552Z,99677.22
2023-03-29T11:43:31.163Z,99678.94
2023-03-29T11:46:04.396Z,99671.59
2023-03-29T11:48:37.912Z,99675.34
2023-03-29T11:51:14.011Z,99668.75
2023-03-29T11:53:49.892Z,99673.50
2023-03-29T11:56:23.333Z,99659.78
2023-03-29T11:58:56.227Z,99654.28
2023-03-29T12:01:32.366Z,99648.16
2023-03-29T12:04:07.113Z,99650.72
2023-03-29T12:06:42.248Z,99643.69
2023-03-29T12:09:18.253Z,99624.19
2023-03-29T12:11:51.820Z,99624.41
2023-03-29T12:14:27.379Z,99618.69
2023-03-29T12:17:00.865Z,99625.22
2023-03-29T12:19:39.185Z,99632.72
2023-03-29T12:22:10.510Z,99627.75
2023-03-29T12:24:42.489Z,99624.06
2023-03-29T12:27:23.937Z,99619.91
2023-03-29T12:30:09.662Z,99616.03
2023-03-29T12:32:49.905Z,99615.84
2023-03-29T12:35:28.546Z,99625.34
2023-03-29T12:38:08.190Z,99621.59
2023-03-29T12:40:43.124Z,99619.84
2023-03-29T12:43:20.740Z,99615.34
2023-03-29T12:45:49.228Z,99616.19
2023-03-29T12:48:19.546Z,99620.28
2023-03-29T12:50:52.268Z,99618.25
2023-03-29T12:53:24.156Z,99609.22
2023-03-29T12:56:10.116Z,99607.38
2023-03-29T12:58:43.585Z,99602.06
2023-03-29T13:01:24.429Z,99609.88
2023-03-29T13:03:57.350Z,99609.22
2023-03-29T13:06:33.231Z,99619.06
2023-03-29T13:09:20.193Z,99621.50
2023-03-29T13:11:53.415Z,99615.66
2023-03-29T13:14:22.912Z,99610.03
2023-03-29T13:16:50.968Z,99609.16
2023-03-29T13:19:31.910Z,99608.78
2023-03-29T13:22:13.826Z,99603.09
2023-03-29T13:25:01.124Z,99602.16
2023-03-29T13:27:39.546Z,99598.34
2023-03-29T13:30:24.777Z,99595.88
2023-03-29T13:33:05.171Z,99586.44
2023-03-29T13:35:46.006Z,99581.72
2023-03-29T13:38:20.807Z,99585.13
2023-03-29T13:41:00.728Z,99596.50
2023-03-29T13:43:34.165Z,99592.41
2023-03-29T13:46:23.032Z,99595.53
2023-03-29T13:49:01.027Z,99592.19
2023-03-29T13:51:35.197Z,99583.41
2023-03-29T13:54:12.953Z,99590.53
2023-03-29T13:56:56.123Z,99580.19
2023-03-29T13:59:32.831Z,99595.84
2023-03-29T14:02:02.804Z,99585.78
2023-03-29T14:04:37.575Z,99582.75
2023-03-29T14:07:07.390Z,99572.50
2023-03-29T14:09:42.168Z,99553.06
2023-03-29T14:12:12.263Z,99558.94
2023-03-29T14:14:56.055Z,99545.69
2023-03-29T14:17:26.573Z,99545.66
2023-03-29T14:19:57.852Z,99547.88
2023-03-29T14:22:25.625Z,99541.13
2023-03-29T14:24:58.231Z,99532.06
2023-03-29T14:27:25.980Z,99529.97
2023-03-29T14:29:53.503Z,99531.16
2023-03-29T14:32:29.720Z,99527.78
2023-03-29T14:34:57.879Z,99513.22
2023-03-29T14:37:28.510Z,99511.81
2023-03-29T14:39:59.644Z,99507.59
2023-03-29T14:42:29.219Z,99503.00
2023-03-29T14:44:59.570Z,99510.59
2023-03-29T14:47:30.102Z,99505.03
2023-03-29T14:50:00.727Z,99516.66
2023-03-29T14:52:30.293Z,99516.84
2023-03-29T14:55:01.797Z,99511.03
2023-03-29T14:57:35.061Z,99512.53
2023-03-29T15:00:13.416Z,99504.56
2023-03-29T15:02:50.860Z,99498.44
2023-03-29T15:05:32.510Z,99495.06
2023-03-29T15:08:01.327Z,99487.78
2023-03-29T15:10:32.896Z,99485.16
2023-03-29T15:13:03.159Z,99484.44
2023-03-29T15:15:34.514Z,99478.38
2023-03-29T15:18:03.434Z,99471.94
2023-03-29T15:20:34.667Z,99482.34
2023-03-29T15:23:04.552Z,99469.38
2023-03-29T15:25:38.482Z,99465.75
2023-03-29T15:28:06.311Z,99470.03
2023-03-29T15:30:36.555Z,99464.75
2023-03-29T15:33:17.770Z,99458.84
2023-03-29T15:35:50.366Z,99460.38
2023-03-29T15:38:18.046Z,99452.63
2023-03-29T15:40:47.798Z,99446.63
2023-03-29T15:43:15.557Z,99433.34
2023-03-29T15:45:43.478Z,99420.06
2023-03-29T15:48:16.272Z,99413.59
2023-03-29T15:50:44.993Z,99416.72
2023-03-29T15:53:15.597Z,99414.84
2023-03-29T15:55:46.754Z,99413.41
2023-03-29T15:58:18.879Z,99407.81
2023-03-29T16:00:50.997Z,99402.78
2023-03-29T16:03:18.628Z,99410.03
2023-03-29T16:05:47.370Z,99394.91
2023-03-29T16:08:15.844Z,99394.47
2023-03-29T16:10:44.605Z,99397.72
2023-03-29T16:13:14.327Z,99394.66
2023-03-29T16:15:43.868Z,99391.81
2023-03-29T16:18:11.339Z,99387.50
2023-03-29T16:20:39.157Z,99389.94
2023-03-29T16:23:09.270Z,99387.78
2023-03-29T16:25:39.682Z,99392.06
2023-03-29T16:28:08.893Z,99392.13
2023-03-29T16:30:38.406Z,99386.22
2023-03-29T16:33:08.437Z,99381.50
2023-03-29T16:35:39.737Z,99380.34
2023-03-29T16:38:08.537Z,99367.72
2023-03-29T16:40:36.521Z,99365.13
2023-03-29T16:43:04.505Z,99355.72
2023-03-29T16:45:32.009Z,99359.03
2023-03-29T16:47:59.779Z,99345.75
2023-03-29T16:50:28.633Z,99353.97
2023-03-29T16:52:56.185Z,99353.81
2023-03-29T16:55:23.887Z,99352.03
2023-03-29T16:57:51.771Z,99360.88
2023-03-29T17:00:21.782Z,99351.47
2023-03-29T17:02:50.488Z,99344.66
2023-03-29T17:05:19.375Z,99349.97
2023-03-29T17:07:48.193Z,99337.69
2023-03-29T17:10:15.931Z,99331.97
2023-03-29T17:12:43.396Z,99339.41
2023-03-29T17:15:11.202Z,99335.13
2023-03-29T17:17:38.820Z,99326.53
2023-03-29T17:20:11.698Z,99328.56
2023-03-29T17:22:39.312Z,99328.75
2023-03-29T17:25:09.842Z,99313.31
2023-03-29T17:27:38.262Z,99317.53
2023-03-29T17:30:06.546Z,99308.75
2023-03-29T17:32:34.109Z,99316.84
2023-03-29T17:35:01.623Z,99317.84
2023-03-29T17:37:29.232Z,99313.00
2023-03-29T17:39:56.706Z,99319.22
2023-03-29T17:42:25.810Z,99314.00
2023-03-29T17:44:53.603Z,99317.06
2023-03-29T17:47:21.061Z,99314.94
2023-03-29T17:49:48.531Z,99315.72
2023-03-29T17:52:16.025Z,99309.78
2023-03-29T17:54:43.524Z,99309.78
2023-03-29T17:57:11.001Z,99321.69
2023-03-29T17:59:39.870Z,99312.47
2023-03-29T18:02:07.817Z,99318.78
2023-03-29T18:04:35.519Z,99309.78
2023-03-29T18:07:02.997Z,99301.78
2023-03-29T18:09:31.132Z,99289.44
2023-03-29T18:11:58.628Z,99280.28
2023-03-29T18:14:26.284Z,99293.06
2023-03-29T18:16:55.696Z,99282.38
2023-03-29T18:19:23.386Z,99281.50
2023-03-29T18:21:50.975Z,99280.28
2023-03-29T18:24:18.477Z,99276.16
2023-03-29T18:26:45.937Z,99283.06
2023-03-29T18:29:13.485Z,99275.88
2023-03-29T18:31:40.979Z,99273.84
2023-03-29T18:34:09.813Z,99275.59
2023-03-29T18:36:37.464Z,99276.69
2023-03-29T18:39:06.159Z,99277.84
2023-03-29T18:41:34.702Z,99272.38
2023-03-29T18:44:02.347Z,99280.41
2023-03-29T18:46:31.120Z,99283.28
2023-03-29T18:48:59.446Z,99275.03
2023-03-29T18:51:29.144Z,99280.06
2023-03-29T18:53:56.925Z,99271.38
2023-03-29T18:56:24.488Z,99264.06
2023-03-29T18:58:52.327Z,99265.72
2023-03-29T19:01:19.812Z,99261.53
2023-03-29T19:03:47.860Z,99256.16
2023-03-29T19:06:15.846Z,99252.75
2023-03-29T19:08:45.088Z,99254.44
2023-03-29T19:11:14.171Z,99254.56
2023-03-29T19:13:41.872Z,99248.25
2023-03-29T19:16:09.617Z,99244.16
2023-03-29T19:18:37.200Z,99237.56
2023-03-29T19:21:04.706Z,99248.16
2023-03-29T19:23:32.161Z,99240.31
2023-03-29T19:26:03.295Z,99241.41
2023-03-29T19:28:31.005Z,99239.97
2023-03-29T19:31:00.954Z,99232.94
2023-03-29T19:33:29.076Z,99232.38
2023-03-29T19:35:56.676Z,99228.66
2023-03-29T19:38:24.588Z,99224.13
2023-03-29T19:40:53.072Z,99220.06
2023-03-29T19:43:21.918Z,99208.56
2023-03-29T19:45:50.905Z,99218.25
2023-03-29T19:48:23.594Z,99212.59
2023-03-29T19:50:52.199Z,99219.56
2023-03-29T19:53:19.662Z,99207.16
2023-03-29T19:55:48.597Z,99204.69
2023-03-29T19:58:16.026Z,99208.56
2023-03-29T20:00:45.039Z,99205.13
2023-03-29T20:03:13.837Z,99208.81
2023-03-29T20:05:41.786Z,99195.69
2023-03-29T20:08:09.804Z,99177.31
2023-03-29T20:10:37.428Z,99181.28
2023-03-29T20:13:06.336Z,99180.06
2023-03-29T20:15:33.777Z,99177.31
2023-03-29T20:18:03.325Z,99166.84
2023-03-29T20:20:31.640Z,99170.69
2023-03-29T20:23:04.509Z,99188.03
2023-03-29T20:25:32.829Z,99178.59
2023-03-29T20:28:00.470Z,99187.81
2023-03-29T20:30:28.209Z,99177.53
2023-03-29T20:32:55.663Z,99180.59
2023-03-29T20:35:24.445Z,99176.56
2023-03-29T20:37:52.115Z,99161.25
2023-03-29T20:40:20.705Z,99166.16
2023-03-29T20:42:48.869Z,99158.69
2023-03-29T20:45:19.185Z,99156.88
2023-03-29T20:47:50.161Z,99156.66
2023-03-29T20:50:19.953Z,99165.22
2023-03-29T20:52:48.750Z,99152.59
2023-03-29T20:55:21.984Z,99151.31
2023-03-29T20:57:50.112Z,99146.22
2023-03-29T21:00:19.558Z,99152.59
2023-03-29T21:02:47.585Z,99139.28
2023-03-29T21:05:15.627Z,99130.41
2023-03-29T21:07:44.665Z,99130.94
2023-03-29T21:10:13.625Z,99125.19
2023-03-29T21:12:41.744Z,99136.41
2023-03-29T21:15:10.306Z,99125.50
2023-03-29T21:17:38.203Z,99121.34
2023-03-29T21:20:11.012Z,99111.56
2023-03-29T21:22:38.940Z,99100.41
2023-03-29T21:25:08.035Z,99113.84
2023-03-29T21:27:37.169Z,99102.16
2023-03-29T21:30:05.321Z,99100.72
2023-03-29T21:32:32.819Z,99091.19
2023-03-29T21:35:00.342Z,99087.97
2023-03-29T21:37:27.864Z,99083.03
2023-03-29T21:39:55.282Z,99085.22
2023-03-29T21:42:22.707Z,99077.38
2023-03-29T21:44:51.560Z,99062.53
2023-03-29T21:47:19.244Z,99059.91
2023-03-29T21:49:46.716Z,99061.19
2023-03-29T21:52:14.274Z,99063.88
2023-03-29T21:54:41.835Z,99055.91
2023-03-29T21:57:09.472Z,99062.19
2023-03-29T21:59:37.030Z,99053.09
2023-03-29T22:02:05.919Z,99045.78
2023-03-29T22:04:37.096Z,99047.88
2023-03-29T22:07:05.812Z,99047.13
2023-03-29T22:09:34.563Z,99037.31
2023-03-29T22:12:02.114Z,99032.16
2023-03-29T22:14:30.278Z,99030.00
2023-03-29T22:16:57.893Z,99040.59
2023-03-29T22:19:26.760Z,99039.56
2023-03-29T22:22:01.150Z,99044.06
2023-03-29T22:24:29.192Z,99052.47
2023-03-29T22:26:56.846Z,99054.66
2023-03-29T22:29:24.388Z,99047.06
2023-03-29T22:31:51.916Z,99050.63
2023-03-29T22:34:19.378Z,99040.69
2023-03-29T22:36:48.176Z,99041.59
2023-03-29T22:39:15.841Z,99048.94
2023-03-29T22:41:43.297Z,99035.34
2023-03-29T22:44:10.868Z,99036.19
2023-03-29T22:46:38.513Z,99026.44
2023-03-29T22:49:06.109Z,99025.03
2023-03-29T22:51:33.583Z,99020.94
2023-03-29T22:54:02.392Z,99020.19
2023-03-29T22:56:29.873Z,99003.00
2023-03-29T22:58:57.369Z,99008.00
2023-03-29T23:01:24.987Z,99006.53
2023-03-29T23:03:52.513Z,99002.03
2023-03-29T23:06:20.335Z,99002.91
2023-03-29T23:08:47.771Z,99014.38
2023-03-29T23:11:16.578Z,99003.56
2023-03-29T23:13:44.038Z,98984.25
2023-03-29T23:16:11.549Z,98997.88
2023-03-29T23:18:39.101Z,98998.59
2023-03-29T23:21:08.743Z,99002.16
2023-03-29T23:23:36.826Z,98989.78
2023-03-29T23:26:04.566Z,98977.09
2023-03-29T23:28:34.289Z,98978.25
2023-03-29T23:31:04.415Z,98980.66
2023-03-29T23:33:34.896Z,98998.69
2023-03-29T23:36:04.250Z,98988.19
2023-03-29T23:38:33.061Z,98977.19
2023-03-29T23:41:02.364Z,98983.81
2023-03-29T23:43:32.434Z,98976.75
2023-03-29T23:46:02.972Z,98983.28
2023-03-29T23:48:31.518Z,98987.44
2023-03-29T23:50:59.229Z,98982.00
2023-03-29T23:53:28.468Z,98984.44
2023-03-29T23:55:58.079Z,98984.44
2023-03-29T23:58:25.569Z,98979.97
